Agar, South Dakota
Current Conditions -  °F | °C
As of 4:53 AM on Saturday 20 Dec 2014 (Local Time) from KPIR Reporting Station
Moderate Fog Moderate Fog  
Wind Chill: 19°   Ceiling: 100
Heat Index: 19°   Visibility: 0mi
Dew Point: 15°   Wind: 0mph
Humidity: 85%   Direction: NA
Pressure: 29.95"   Gusts: NA
Location:  44.84°N, 100.07°W
Report Text: KPIR 201053Z AUTO 00000KT M1/4SM FZFG VV001 M07/M09 A2995 RMK AO2 SLP167 T10721094
Loading
Personal Weather Stations






























Interactive Weather Map New forecast layout! Learn more

10-Day Weather Forecast

Advertisements
Track Severe Weather on mobile